Time;durP1;ratioP1;P1;durP2;ratioP2;P2;SDS_P1;SDS_P2;PMS_P1;PMS_P2;Temp;Humidity;BMP_temperature;BMP_pressure;BME280_temperature;BME280_humidity;BME280_pressure;Samples;Min_cycle;Max_cycle;Signal;HPM_P1;HPM_P2
2022/04/05 00:02:22;;;;;;;;;;;;;;;5.51;76.23;95048.13;5113213;28;1576;-49
2022/04/05 00:04:48;;;;;;;;;;;;;;;5.60;75.70;95042.00;5113370;28;1323;-48
2022/04/05 00:07:14;;;;;;;;;;;;;;;5.37;76.08;95041.34;5113153;28;1636;-48
2022/04/05 00:09:41;;;;;;;;;;;;;;;5.07;77.35;95039.50;5113406;28;1381;-49
2022/04/05 00:12:07;;;;;;;;;;;;;;;5.08;77.38;95041.19;5112732;28;1455;-48
2022/04/05 00:14:33;;;;;;;;;;;;;;;5.17;77.49;95037.75;5113170;28;1597;-49
2022/04/05 00:16:59;;;;;;;;;;;;;;;5.33;77.02;95034.66;5113091;28;1905;-48
2022/04/05 00:19:25;;;;;;;;;;;;;;;5.53;76.39;95040.88;5113510;28;984;-48
2022/04/05 00:21:54;;;;;;;;;;;;;;;5.70;76.43;95034.09;5116558;28;1036;-48
2022/04/05 00:24:20;;;;;;;;;;;;;;;5.69;76.12;95035.06;5117624;27;1023;-49
2022/04/05 00:26:46;;;;;;;;;;;;;;;5.71;75.65;95030.47;5117563;28;1024;-49
2022/04/05 00:29:12;;;;;;;;;;;;;;;5.54;75.87;95031.09;5117470;28;981;-49
2022/04/05 00:31:38;;;;;;;;;;;;;;;5.38;76.41;95027.13;5117331;28;964;-48
2022/04/05 00:34:04;;;;;;;;;;;;;;;5.38;76.82;95026.28;5117459;28;1024;-48
2022/04/05 00:36:30;;;;;;;;;;;;;;;5.41;76.41;95026.03;5117368;28;1906;-49
2022/04/05 00:38:56;;;;;;;;;;;;;;;5.42;77.19;95020.56;5117208;28;1016;-48
2022/04/05 00:41:22;;;;;;;;;;;;;;;5.31;77.42;95012.69;5117017;28;1028;-48
2022/04/05 00:43:48;;;;;;;;;;;;;;;5.23;77.79;95010.72;5117182;28;976;-48
2022/04/05 00:46:14;;;;;;;;;;;;;;;5.19;78.02;95000.53;5116940;28;1029;-48
2022/04/05 00:48:50;;;;;;;;;;;;;;;5.16;77.88;94998.97;5117007;28;1032;-48
2022/04/05 00:51:16;;;;;;;;;;;;;;;5.30;77.56;94994.31;5116780;28;1216;-48
2022/04/05 00:53:45;;;;;;;;;;;;;;;5.41;77.12;94991.56;5117211;28;983;-48
2022/04/05 00:56:11;;;;;;;;;;;;;;;5.48;76.97;94984.72;5116826;28;1909;-48
2022/04/05 00:58:38;;;;;;;;;;;;;;;5.53;77.00;94993.13;5116955;28;995;-49
2022/04/05 01:01:05;;;;;;;;;;;;;;;5.54;77.00;94986.00;5116645;28;1051;-48
2022/04/05 01:03:32;;;;;;;;;;;;;;;5.55;76.77;94991.19;5117074;28;1190;-49
2022/04/05 01:06:01;;;;;;;;;;;;;;;5.47;76.62;94985.72;5116843;28;1243;-48
2022/04/05 01:08:28;;;;;;;;;;;;;;;5.35;77.07;94984.97;5116782;28;1047;-48
2022/04/05 01:10:54;;;;;;;;;;;;;;;5.43;77.24;94986.97;5116861;28;1007;-48
2022/04/05 01:13:21;;;;;;;;;;;;;;;5.40;76.76;94988.03;5116182;28;1088;-48
2022/04/05 01:15:47;;;;;;;;;;;;;;;5.47;76.50;94983.88;5116337;27;1991;-48
2022/04/05 01:18:14;;;;;;;;;;;;;;;5.50;76.21;94982.78;5116605;28;1035;-48
2022/04/05 01:20:40;;;;;;;;;;;;;;;5.44;76.66;94988.63;5116713;28;991;-48
2022/04/05 01:23:06;;;;;;;;;;;;;;;5.46;76.74;94987.53;5116248;28;1079;-48
2022/04/05 01:25:32;;;;;;;;;;;;;;;5.25;77.77;94981.44;5116440;28;1015;-48
2022/04/05 01:27:58;;;;;;;;;;;;;;;5.31;77.74;94983.53;5116338;28;984;-48
2022/04/05 01:30:24;;;;;;;;;;;;;;;5.39;77.31;94983.72;5116512;28;957;-48
2022/04/05 01:32:50;;;;;;;;;;;;;;;5.39;77.71;94986.38;5115190;28;993;-48
2022/04/05 01:35:16;;;;;;;;;;;;;;;5.47;77.71;94994.50;5116246;28;1906;-48
2022/04/05 01:37:42;;;;;;;;;;;;;;;5.58;76.63;94979.47;5116151;28;964;-48
2022/04/05 01:40:08;;;;;;;;;;;;;;;5.67;76.90;94979.50;5115952;28;1020;-48
2022/04/05 01:42:37;;;;;;;;;;;;;;;5.48;76.92;94980.28;5115814;28;1050;-48
2022/04/05 01:45:03;;;;;;;;;;;;;;;5.47;76.62;94977.75;5116163;28;1035;-48
2022/04/05 01:47:29;;;;;;;;;;;;;;;5.36;78.09;94972.56;5115795;28;1036;-49
2022/04/05 01:49:55;;;;;;;;;;;;;;;5.47;77.38;94973.28;5115988;27;1114;-48
2022/04/05 01:52:21;;;;;;;;;;;;;;;5.74;76.92;94979.78;5115916;28;1149;-48
2022/04/05 01:54:47;;;;;;;;;;;;;;;5.57;76.85;94978.63;5115729;28;1042;-48
2022/04/05 01:57:15;;;;;;;;;;;;;;;5.32;77.47;94971.16;5115811;28;1910;-48
2022/04/05 01:59:41;;;;;;;;;;;;;;;5.19;78.20;94968.72;5115730;28;1015;-48
2022/04/05 02:02:09;;;;;;;;;;;;;;;5.09;78.79;94969.50;5115637;28;1056;-48
2022/04/05 02:04:36;;;;;;;;;;;;;;;5.34;78.00;94964.72;5115889;28;964;-48
2022/04/05 02:07:23;;;;;;;;;;;;;;;5.55;76.96;94966.47;5115575;28;991;-48
2022/04/05 02:09:49;;;;;;;;;;;;;;;5.43;77.24;94960.44;5115457;28;1101;-48
2022/04/05 02:12:16;;;;;;;;;;;;;;;5.28;77.78;94955.50;5115185;28;1104;-48
2022/04/05 02:14:42;;;;;;;;;;;;;;;5.38;77.78;94962.66;5115740;28;988;-48
2022/04/05 02:17:09;;;;;;;;;;;;;;;5.34;77.73;94961.25;5115246;28;1913;-48
2022/04/05 02:19:36;;;;;;;;;;;;;;;5.27;77.40;94964.44;5115167;28;1024;-48
2022/04/05 02:22:02;;;;;;;;;;;;;;;5.23;77.07;94959.50;5115205;28;1971;-48
2022/04/05 02:24:28;;;;;;;;;;;;;;;4.97;77.81;94967.06;5114972;28;1044;-48
2022/04/05 02:26:54;;;;;;;;;;;;;;;4.86;78.66;94963.53;5115260;28;1052;-48
2022/04/05 02:29:20;;;;;;;;;;;;;;;4.87;78.92;94965.19;5115190;28;1048;-48
2022/04/05 02:31:46;;;;;;;;;;;;;;;5.03;78.35;94958.59;5115032;28;1977;-48
2022/04/05 02:34:12;;;;;;;;;;;;;;;5.06;78.31;94953.03;5115130;28;969;-48
2022/04/05 02:36:38;;;;;;;;;;;;;;;4.97;78.57;94943.22;5115195;27;1992;-48
2022/04/05 02:39:05;;;;;;;;;;;;;;;5.01;77.86;94960.56;5114603;28;1079;-48
2022/04/05 02:41:31;;;;;;;;;;;;;;;5.06;77.60;94945.91;5115162;28;1019;-48
2022/04/05 02:43:58;;;;;;;;;;;;;;;4.94;78.18;94941.69;5114498;28;1055;-48
2022/04/05 02:46:25;;;;;;;;;;;;;;;4.82;77.81;94948.03;5114810;28;1027;-48
2022/04/05 02:48:54;;;;;;;;;;;;;;;4.79;78.25;94935.03;5114586;28;1055;-48
2022/04/05 02:51:21;;;;;;;;;;;;;;;4.98;78.14;94937.78;5114630;28;1317;-48
2022/04/05 02:53:47;;;;;;;;;;;;;;;4.98;78.52;94935.13;5114401;28;1119;-48
2022/04/05 02:56:14;;;;;;;;;;;;;;;5.03;78.59;94937.41;5114769;28;1905;-48
2022/04/05 02:58:40;;;;;;;;;;;;;;;5.08;78.74;94928.09;5114442;28;1928;-48
2022/04/05 03:01:06;;;;;;;;;;;;;;;5.12;78.01;94930.44;5114713;28;1015;-48
2022/04/05 03:03:32;;;;;;;;;;;;;;;4.75;76.75;94928.34;5114636;28;1003;-48
2022/04/05 03:05:59;;;;;;;;;;;;;;;4.46;78.42;94934.31;5114640;28;1031;-48
2022/04/05 03:08:25;;;;;;;;;;;;;;;4.58;78.64;94930.59;5114127;28;1044;-48
2022/04/05 03:10:51;;;;;;;;;;;;;;;4.74;78.48;94924.00;5114263;28;1627;-48
2022/04/05 03:13:17;;;;;;;;;;;;;;;4.86;78.20;94929.09;5113769;28;1238;-48
2022/04/05 03:15:43;;;;;;;;;;;;;;;4.95;78.27;94930.13;5114364;28;1913;-48
2022/04/05 03:18:09;;;;;;;;;;;;;;;4.98;78.30;94924.53;5114454;28;1198;-48
2022/04/05 03:20:35;;;;;;;;;;;;;;;4.97;78.72;94927.31;5114291;28;960;-48
2022/04/05 03:23:01;;;;;;;;;;;;;;;4.91;77.90;94933.16;5113931;28;1015;-48
2022/04/05 03:25:27;;;;;;;;;;;;;;;4.70;78.23;94926.06;5114344;28;968;-48
2022/04/05 03:27:53;;;;;;;;;;;;;;;4.67;78.73;94929.00;5114099;28;995;-48
2022/04/05 03:30:20;;;;;;;;;;;;;;;4.69;79.10;94929.69;5114315;28;979;-48
2022/04/05 03:32:46;;;;;;;;;;;;;;;4.76;78.59;94933.50;5114212;28;1248;-49
2022/04/05 03:35:12;;;;;;;;;;;;;;;4.80;78.21;94937.56;5114181;28;1038;-48
2022/04/05 03:37:39;;;;;;;;;;;;;;;4.75;78.43;94934.47;5113823;28;1938;-48
2022/04/05 03:40:05;;;;;;;;;;;;;;;4.64;78.98;94932.72;5113977;28;956;-48
2022/04/05 03:42:31;;;;;;;;;;;;;;;4.64;79.06;94930.06;5113189;28;2428;-48
2022/04/05 03:44:57;;;;;;;;;;;;;;;4.65;78.54;94937.06;5113506;28;1043;-48
2022/04/05 03:47:26;;;;;;;;;;;;;;;4.55;79.40;94940.59;5113715;28;1090;-48
2022/04/05 03:49:52;;;;;;;;;;;;;;;4.60;79.55;94930.47;5112086;28;1268;-48
2022/04/05 03:52:19;;;;;;;;;;;;;;;4.68;79.41;94938.59;5113719;28;1220;-48
2022/04/05 03:54:45;;;;;;;;;;;;;;;4.76;79.55;94938.81;5113782;28;1039;-48
2022/04/05 03:57:11;;;;;;;;;;;;;;;4.91;78.51;94933.16;5117817;28;1934;-48
2022/04/05 03:59:37;;;;;;;;;;;;;;;4.86;78.62;94938.84;5116664;28;1099;-48
2022/04/05 04:02:04;;;;;;;;;;;;;;;4.86;78.90;94937.03;5117681;28;1048;-48
2022/04/05 04:04:30;;;;;;;;;;;;;;;4.92;78.93;94932.19;5117882;28;1003;-49
2022/04/05 04:06:56;;;;;;;;;;;;;;;4.75;79.04;94929.16;5118006;28;1023;-48
2022/04/05 04:09:22;;;;;;;;;;;;;;;4.76;79.28;94932.66;5117640;28;1100;-48
2022/04/05 04:11:49;;;;;;;;;;;;;;;4.84;78.67;94933.69;5117314;28;1505;-48
2022/04/05 04:14:16;;;;;;;;;;;;;;;4.70;79.36;94936.66;5117412;28;1107;-48
2022/04/05 04:16:42;;;;;;;;;;;;;;;4.72;79.43;94940.00;5117564;28;1909;-48
2022/04/05 04:19:08;;;;;;;;;;;;;;;4.86;78.89;94931.75;5117363;28;999;-49
2022/04/05 04:21:34;;;;;;;;;;;;;;;4.86;78.79;94931.75;5117514;28;1020;-49
2022/04/05 04:24:00;;;;;;;;;;;;;;;4.74;79.01;94938.06;5117278;28;1111;-48
2022/04/05 04:26:26;;;;;;;;;;;;;;;4.66;79.67;94944.03;5117801;28;1067;-48
2022/04/05 04:28:53;;;;;;;;;;;;;;;4.72;79.35;94941.81;5116316;28;1039;-49
2022/04/05 04:31:19;;;;;;;;;;;;;;;4.83;79.19;94942.59;5117426;28;1115;-48
2022/04/05 04:33:45;;;;;;;;;;;;;;;4.93;78.58;94939.97;5117588;28;1046;-48
2022/04/05 04:36:11;;;;;;;;;;;;;;;4.89;78.50;94941.22;5117149;28;1899;-48
2022/04/05 04:38:37;;;;;;;;;;;;;;;4.98;79.30;94936.97;5117300;28;965;-48
2022/04/05 04:41:03;;;;;;;;;;;;;;;5.15;78.24;94938.16;5117013;28;948;-48
2022/04/05 04:43:29;;;;;;;;;;;;;;;5.24;77.84;94935.53;5116959;28;1016;-48
2022/04/05 04:45:55;;;;;;;;;;;;;;;5.28;77.62;94941.41;5115738;28;1079;-48
2022/04/05 04:48:22;;;;;;;;;;;;;;;5.36;76.64;94936.25;5117209;28;968;-49
2022/04/05 04:50:48;;;;;;;;;;;;;;;5.42;76.11;94937.53;5116922;28;1168;-49
2022/04/05 04:53:14;;;;;;;;;;;;;;;5.42;76.61;94934.88;5117014;28;1058;-48
2022/04/05 04:55:40;;;;;;;;;;;;;;;5.47;75.64;94932.69;5117000;28;1987;-49
2022/04/05 04:58:07;;;;;;;;;;;;;;;5.60;74.61;94935.91;5116843;28;1039;-49
2022/04/05 05:00:33;;;;;;;;;;;;;;;5.57;75.17;94930.88;5116762;28;1106;-48
2022/04/05 05:02:59;;;;;;;;;;;;;;;5.56;75.21;94937.16;5116065;27;1494;-48
2022/04/05 05:05:25;;;;;;;;;;;;;;;5.56;75.45;94931.88;5116706;28;1308;-48
2022/04/05 05:07:51;;;;;;;;;;;;;;;5.57;75.34;94932.69;5116437;28;1056;-48
2022/04/05 05:10:20;;;;;;;;;;;;;;;5.61;75.15;94931.44;5116466;28;1499;-48
2022/04/05 05:12:46;;;;;;;;;;;;;;;5.62;75.08;94931.31;5116157;28;1088;-48
2022/04/05 05:15:16;;;;;;;;;;;;;;;5.62;74.92;94933.97;5116098;28;1490;-53
2022/04/05 05:17:43;;;;;;;;;;;;;;;5.71;75.49;94934.97;5116543;28;1910;-49
2022/04/05 05:20:10;;;;;;;;;;;;;;;5.77;75.42;94934.44;5116239;28;1480;-50
2022/04/05 05:22:36;;;;;;;;;;;;;;;5.82;74.77;94934.00;5116188;28;1028;-50
2022/04/05 05:25:03;;;;;;;;;;;;;;;5.96;74.26;94931.00;5116429;28;1032;-50
2022/04/05 05:27:29;;;;;;;;;;;;;;;6.04;74.54;94931.13;5116564;28;980;-50
2022/04/05 05:29:55;;;;;;;;;;;;;;;5.86;74.38;94938.06;5116239;28;1023;-49
2022/04/05 05:32:21;;;;;;;;;;;;;;;5.87;75.00;94937.91;5116220;28;1028;-52
2022/04/05 05:34:47;;;;;;;;;;;;;;;5.91;75.35;94941.13;5115957;28;1099;-49
2022/04/05 05:37:13;;;;;;;;;;;;;;;6.05;74.83;94939.91;5116077;28;1992;-49
2022/04/05 05:39:40;;;;;;;;;;;;;;;6.10;74.29;94942.19;5115992;28;916;-49
2022/04/05 05:42:07;;;;;;;;;;;;;;;6.24;73.99;94941.75;5115484;28;1111;-49
2022/04/05 05:44:33;;;;;;;;;;;;;;;6.33;73.81;94945.38;5116084;28;999;-49
2022/04/05 05:47:00;;;;;;;;;;;;;;;6.36;73.87;94942.47;5115619;28;1076;-49
2022/04/05 05:49:26;;;;;;;;;;;;;;;6.53;73.10;94939.09;5115877;28;964;-49
2022/04/05 05:51:52;;;;;;;;;;;;;;;6.56;72.39;94937.97;5115329;28;1157;-49
2022/04/05 05:54:18;;;;;;;;;;;;;;;6.54;70.80;94934.59;5115704;28;1076;-49
2022/04/05 05:56:44;;;;;;;;;;;;;;;6.50;70.90;94941.19;5115352;28;1963;-49
2022/04/05 05:59:10;;;;;;;;;;;;;;;6.60;71.36;94940.22;5115972;28;945;-49
2022/04/05 06:01:36;;;;;;;;;;;;;;;6.84;70.35;94950.34;5115430;28;1032;-49
2022/04/05 06:04:03;;;;;;;;;;;;;;;6.86;69.38;94946.72;5115830;28;1083;-49
2022/04/05 06:06:29;;;;;;;;;;;;;;;6.95;69.54;94945.88;5115453;28;1032;-49
2022/04/05 06:08:55;;;;;;;;;;;;;;;7.07;69.21;94950.03;5115696;28;999;-50
2022/04/05 06:11:22;;;;;;;;;;;;;;;6.97;69.34;94950.06;5115428;28;968;-49
2022/04/05 06:13:48;;;;;;;;;;;;;;;7.15;69.21;94949.28;5115056;28;1076;-49
2022/04/05 06:16:15;;;;;;;;;;;;;;;7.73;68.00;94950.88;5115362;28;1910;-49
2022/04/05 06:18:42;;;;;;;;;;;;;;;8.50;65.43;94943.34;5114949;28;956;-50
2022/04/05 06:21:08;;;;;;;;;;;;;;;8.52;64.69;94949.38;5114750;28;1099;-49
2022/04/05 06:23:34;;;;;;;;;;;;;;;8.69;64.08;94951.19;5115188;28;1035;-50
2022/04/05 06:26:00;;;;;;;;;;;;;;;8.73;64.92;94957.88;5114823;28;1835;-49
2022/04/05 06:28:27;;;;;;;;;;;;;;;8.68;65.89;94965.50;5115068;28;1040;-50
2022/04/05 06:30:53;;;;;;;;;;;;;;;8.80;64.72;94952.75;5115097;28;1095;-50
2022/04/05 06:33:21;;;;;;;;;;;;;;;8.56;64.00;94956.06;5114960;28;1263;-50
2022/04/05 06:35:50;;;;;;;;;;;;;;;8.30;65.74;94959.47;5114591;28;1906;-50
2022/04/05 06:38:16;;;;;;;;;;;;;;;8.17;65.96;94956.34;5115010;28;960;-49
2022/04/05 06:40:43;;;;;;;;;;;;;;;8.11;66.35;94951.63;5114921;28;1042;-50
2022/04/05 06:43:09;;;;;;;;;;;;;;;7.87;67.03;94955.69;5114610;28;1157;-50
2022/04/05 06:45:36;;;;;;;;;;;;;;;8.03;67.49;94952.38;5115085;28;1035;-50
2022/04/05 06:48:02;;;;;;;;;;;;;;;8.30;66.59;94955.97;5114382;28;1035;-49
2022/04/05 06:50:28;;;;;;;;;;;;;;;8.33;66.52;94948.50;5114831;28;957;-49
2022/04/05 06:52:56;;;;;;;;;;;;;;;8.65;65.97;94947.16;5114439;28;1208;-50
2022/04/05 06:55:22;;;;;;;;;;;;;;;9.37;62.94;94946.94;5114873;28;983;-50
2022/04/05 06:57:48;;;;;;;;;;;;;;;10.00;60.47;94950.22;5114195;28;1908;-50
2022/04/05 07:00:14;;;;;;;;;;;;;;;10.29;59.49;94952.47;5114796;28;949;-50
2022/04/05 07:02:40;;;;;;;;;;;;;;;10.67;59.38;94948.38;5114248;28;1038;-50
2022/04/05 07:05:08;;;;;;;;;;;;;;;11.96;56.42;94949.31;5114101;28;1047;-50
2022/04/05 07:07:34;;;;;;;;;;;;;;;12.30;55.29;94962.34;5114366;28;976;-50
2022/04/05 07:10:00;;;;;;;;;;;;;;;12.05;54.43;94953.63;5114531;28;1054;-50
2022/04/05 07:12:26;;;;;;;;;;;;;;;12.53;54.04;94961.56;5114004;28;1071;-50
2022/04/05 07:14:52;;;;;;;;;;;;;;;15.25;48.88;94968.16;5114177;28;1020;-50
2022/04/05 07:17:18;;;;;;;;;;;;;;;16.25;45.33;94968.00;5113906;28;1906;-50
2022/04/05 07:19:44;;;;;;;;;;;;;;;15.66;45.18;94958.53;5114189;28;968;-50
2022/04/05 07:22:10;;;;;;;;;;;;;;;15.00;46.38;94956.97;5114243;28;1062;-50
2022/04/05 07:24:36;;;;;;;;;;;;;;;14.72;48.79;94962.28;5114034;28;1099;-50
2022/04/05 07:27:02;;;;;;;;;;;;;;;15.67;45.42;94950.25;5113938;28;1285;-50
2022/04/05 07:29:28;;;;;;;;;;;;;;;16.69;45.01;94954.03;5113735;28;985;-50
2022/04/05 07:31:54;;;;;;;;;;;;;;;17.64;42.15;94948.56;5113252;28;1019;-50
2022/04/05 07:34:21;;;;;;;;;;;;;;;17.55;39.67;94952.50;5113814;28;1040;-51
2022/04/05 07:36:47;;;;;;;;;;;;;;;18.26;39.76;94956.31;5113626;28;1901;-50
2022/04/05 07:39:13;;;;;;;;;;;;;;;16.51;41.35;94954.63;5113932;28;1051;-50
2022/04/05 07:41:39;;;;;;;;;;;;;;;16.89;40.06;94953.31;5113813;28;1064;-51
2022/04/05 07:44:05;;;;;;;;;;;;;;;15.80;45.00;94950.38;5113322;28;1084;-51
2022/04/05 07:46:31;;;;;;;;;;;;;;;15.69;46.27;94947.34;5113839;28;1032;-50
2022/04/05 07:48:57;;;;;;;;;;;;;;;15.65;45.06;94951.47;5113425;28;1102;-50
2022/04/05 07:51:23;;;;;;;;;;;;;;;14.98;45.18;94948.25;5113964;28;1180;-50
2022/04/05 07:53:49;;;;;;;;;;;;;;;15.70;46.08;94944.44;5113621;28;1000;-50
2022/04/05 07:56:15;;;;;;;;;;;;;;;15.27;48.14;94944.59;5113580;28;1897;-50
2022/04/05 07:58:44;;;;;;;;;;;;;;;14.82;47.03;94942.13;5113597;28;976;-50
2022/04/05 08:01:10;;;;;;;;;;;;;;;14.75;48.33;94940.38;5113692;28;991;-50
2022/04/05 08:03:37;;;;;;;;;;;;;;;15.32;47.22;94944.81;5113368;28;999;-50
2022/04/05 08:06:03;;;;;;;;;;;;;;;15.01;47.67;94945.19;5113748;28;1056;-50
2022/04/05 08:08:29;;;;;;;;;;;;;;;15.02;46.98;94939.63;5113710;28;984;-50
2022/04/05 08:10:56;;;;;;;;;;;;;;;14.83;46.39;94935.72;5113956;28;1027;-50
2022/04/05 08:13:22;;;;;;;;;;;;;;;15.37;46.39;94941.53;5113117;28;1255;-50
2022/04/05 08:15:48;;;;;;;;;;;;;;;15.12;44.70;94936.59;5113357;28;2003;-50
2022/04/05 08:18:14;;;;;;;;;;;;;;;14.86;46.48;94939.03;5113294;28;984;-50
2022/04/05 08:20:41;;;;;;;;;;;;;;;15.64;45.38;94926.38;5113726;28;1004;-50
2022/04/05 08:23:10;;;;;;;;;;;;;;;16.01;45.00;94932.41;5113195;28;1841;-50
2022/04/05 08:25:37;;;;;;;;;;;;;;;16.64;43.48;94931.38;5113485;28;1036;-51
2022/04/05 08:28:04;;;;;;;;;;;;;;;17.11;42.94;94925.06;5113161;28;1023;-50
2022/04/05 08:30:30;;;;;;;;;;;;;;;17.29;43.12;94921.75;5113338;28;999;-50
2022/04/05 08:32:56;;;;;;;;;;;;;;;17.30;42.11;94922.56;5113098;28;1027;-50
2022/04/05 08:35:23;;;;;;;;;;;;;;;16.59;42.43;94923.91;5113233;28;1019;-50
2022/04/05 08:37:50;;;;;;;;;;;;;;;17.39;41.55;94926.72;5113286;28;1972;-50
2022/04/05 08:40:18;;;;;;;;;;;;;;;17.12;40.88;94920.50;5113348;28;1095;-50
2022/04/05 08:42:46;;;;;;;;;;;;;;;17.45;41.57;94916.94;5115710;28;1031;-50
2022/04/05 08:45:13;;;;;;;;;;;;;;;17.85;41.02;94909.63;5117003;28;1074;-50
2022/04/05 08:47:59;;;;;;;;;;;;;;;17.27;41.00;94902.19;5117382;28;1026;-50
2022/04/05 08:50:26;;;;;;;;;;;;;;;17.03;42.31;94903.66;5116847;28;1036;-50
2022/04/05 08:52:56;;;;;;;;;;;;;;;17.23;42.80;94910.94;5116871;28;1164;-50
2022/04/05 08:55:22;;;;;;;;;;;;;;;17.30;39.58;94896.41;5116910;27;1075;-50
2022/04/05 08:57:49;;;;;;;;;;;;;;;16.78;44.29;94898.81;5116669;28;1984;-50
2022/04/05 09:00:19;;;;;;;;;;;;;;;16.81;43.39;94897.59;5116874;28;1041;-50
2022/04/05 09:02:58;;;;;;;;;;;;;;;16.89;42.81;94889.31;5117008;28;1040;-50
2022/04/05 09:05:25;;;;;;;;;;;;;;;16.58;42.05;94893.41;5116678;28;971;-50
2022/04/05 09:07:51;;;;;;;;;;;;;;;16.82;43.26;94879.53;5116891;28;987;-50
2022/04/05 09:10:19;;;;;;;;;;;;;;;17.12;41.83;94890.78;5116384;28;1054;-50
2022/04/05 09:12:46;;;;;;;;;;;;;;;16.77;41.90;94880.16;5116155;28;1095;-50
2022/04/05 09:15:16;;;;;;;;;;;;;;;16.69;42.63;94880.34;5116579;28;953;-49
2022/04/05 09:17:42;;;;;;;;;;;;;;;16.19;42.78;94873.38;5116556;28;1975;-50
2022/04/05 09:20:10;;;;;;;;;;;;;;;16.27;42.77;94877.75;5116333;28;1040;-50
2022/04/05 09:22:36;;;;;;;;;;;;;;;16.76;43.33;94863.09;5116382;28;1099;-50
2022/04/05 09:25:03;;;;;;;;;;;;;;;17.11;42.08;94862.09;5115997;28;1868;-50
2022/04/05 09:27:48;;;;;;;;;;;;;;;16.71;43.31;94862.91;5116632;28;1011;-50
2022/04/05 09:30:15;;;;;;;;;;;;;;;15.96;41.82;94870.19;5116082;28;1114;-50
2022/04/05 09:32:44;;;;;;;;;;;;;;;14.94;42.49;94869.75;5116194;28;1051;-50
2022/04/05 09:35:10;;;;;;;;;;;;;;;15.40;43.15;94863.88;5115904;28;1024;-49
2022/04/05 09:37:38;;;;;;;;;;;;;;;15.50;45.50;94857.25;5115950;28;1909;-49
2022/04/05 09:40:14;;;;;;;;;;;;;;;15.58;44.15;94854.44;5115813;28;1036;-50
2022/04/05 09:43:01;;;;;;;;;;;;;;;15.71;44.66;94853.66;5115831;28;1052;-50
2022/04/05 09:45:42;;;;;;;;;;;;;;;15.65;43.71;94849.91;5101926;27;1902;-50
2022/04/05 09:48:08;;;;;;;;;;;;;;;15.51;43.86;94849.00;5115656;28;1036;-49
2022/04/05 09:50:53;;;;;;;;;;;;;;;15.24;44.20;94842.63;5114744;28;952;-50
2022/04/05 09:53:19;;;;;;;;;;;;;;;15.18;44.88;94846.94;5094394;28;1541;-50
2022/04/05 09:55:45;;;;;;;;;;;;;;;15.69;42.95;94843.09;5094993;28;1913;-50
2022/04/05 09:58:12;;;;;;;;;;;;;;;15.85;44.51;94841.09;5095274;28;1170;-50
2022/04/05 10:00:38;;;;;;;;;;;;;;;16.20;44.10;94839.13;5095020;28;1858;-50
2022/04/05 10:03:07;;;;;;;;;;;;;;;16.63;41.89;94833.41;5095263;28;1000;-50
2022/04/05 10:05:33;;;;;;;;;;;;;;;15.93;43.22;94830.13;5094942;28;1091;-51
2022/04/05 10:07:59;;;;;;;;;;;;;;;15.52;43.94;94823.72;5095010;28;1071;-50
2022/04/05 10:10:25;;;;;;;;;;;;;;;15.21;43.59;94824.16;5095199;28;1046;-50
2022/04/05 10:12:52;;;;;;;;;;;;;;;15.85;43.08;94822.22;5094581;28;1104;-50
2022/04/05 10:15:22;;;;;;;;;;;;;;;16.06;45.46;94818.56;5094802;28;1041;-50
2022/04/05 10:17:48;;;;;;;;;;;;;;;15.92;43.26;94815.84;5094930;28;1905;-50
2022/04/05 10:20:16;;;;;;;;;;;;;;;15.68;42.44;94810.94;5094721;28;1031;-50
2022/04/05 10:22:42;;;;;;;;;;;;;;;15.43;43.05;94804.19;5095155;28;989;-50
2022/04/05 10:25:09;;;;;;;;;;;;;;;15.81;42.73;94805.63;5094866;28;1067;-50
2022/04/05 10:27:35;;;;;;;;;;;;;;;16.08;44.80;94794.94;5094673;28;1052;-50
2022/04/05 10:30:15;;;;;;;;;;;;;;;16.23;42.89;94795.56;5094437;28;1074;-50
2022/04/05 10:32:47;;;;;;;;;;;;;;;15.59;43.84;94786.00;5094586;28;1115;-50
2022/04/05 10:35:14;;;;;;;;;;;;;;;15.60;42.71;94790.38;5094507;28;1016;-50
2022/04/05 10:37:40;;;;;;;;;;;;;;;16.31;42.77;94784.56;5094495;28;1985;-50
2022/04/05 10:40:10;;;;;;;;;;;;;;;16.61;39.91;94765.31;5094170;28;1009;-50
2022/04/05 10:42:40;;;;;;;;;;;;;;;16.61;40.55;94767.19;5094567;28;1031;-50
2022/04/05 10:45:12;;;;;;;;;;;;;;;16.35;42.01;94763.41;5094161;28;1040;-50
2022/04/05 10:47:57;;;;;;;;;;;;;;;16.42;44.83;94758.03;5094602;28;960;-50
2022/04/05 10:50:23;;;;;;;;;;;;;;;16.48;42.21;94744.53;5094466;28;999;-50
2022/04/05 10:53:09;;;;;;;;;;;;;;;16.78;42.13;94746.81;5112592;28;1161;-50
2022/04/05 10:55:55;;;;;;;;;;;;;;;16.73;40.63;94743.91;5114768;28;1030;-50
2022/04/05 10:58:21;;;;;;;;;;;;;;;16.40;40.80;94732.09;5114503;28;1903;-50
2022/04/05 11:00:48;;;;;;;;;;;;;;;16.46;41.96;94733.13;5114281;28;956;-50
2022/04/05 11:03:14;;;;;;;;;;;;;;;16.61;40.11;94726.69;5114304;28;1090;-50
2022/04/05 11:05:42;;;;;;;;;;;;;;;16.04;42.02;94732.47;5114392;28;1079;-50
2022/04/05 11:08:12;;;;;;;;;;;;;;;15.91;41.85;94724.38;5114301;28;1043;-50
2022/04/05 11:10:41;;;;;;;;;;;;;;;16.02;42.44;94715.69;5114184;28;1075;-49
2022/04/05 11:13:07;;;;;;;;;;;;;;;15.76;42.41;94713.75;5113959;28;1096;-49
2022/04/05 11:15:39;;;;;;;;;;;;;;;15.88;43.18;94716.69;5114114;28;1012;-50
2022/04/05 11:18:06;;;;;;;;;;;;;;;15.86;41.86;94724.13;5114131;28;1848;-50
2022/04/05 11:20:33;;;;;;;;;;;;;;;15.62;41.14;94720.94;5112989;28;1057;-50
2022/04/05 11:23:00;;;;;;;;;;;;;;;15.34;41.24;94718.38;5114052;28;1091;-50
2022/04/05 11:25:27;;;;;;;;;;;;;;;15.15;41.07;94706.47;5114122;28;964;-50
2022/04/05 11:27:53;;;;;;;;;;;;;;;15.35;42.13;94703.88;5114057;28;1019;-50
2022/04/05 11:30:26;;;;;;;;;;;;;;;15.63;40.97;94695.66;5113905;27;1123;-50
2022/04/05 11:33:12;;;;;;;;;;;;;;;15.48;42.36;94693.16;5114036;28;995;-50
2022/04/05 11:35:38;;;;;;;;;;;;;;;15.56;42.50;94689.44;5113644;28;2020;-50
2022/04/05 11:38:05;;;;;;;;;;;;;;;15.47;41.27;94690.66;5114166;28;1032;-50
2022/04/05 11:40:31;;;;;;;;;;;;;;;15.55;40.51;94698.53;5112971;28;1031;-50
2022/04/05 11:43:02;;;;;;;;;;;;;;;15.80;41.88;94690.75;5113420;28;1055;-50
2022/04/05 11:45:32;;;;;;;;;;;;;;;15.84;41.08;94686.63;5113810;28;1044;-50
2022/04/05 11:47:59;;;;;;;;;;;;;;;15.72;40.36;94688.22;5113781;28;936;-50
2022/04/05 11:50:25;;;;;;;;;;;;;;;15.43;40.68;94685.66;5114354;28;960;-50
2022/04/05 11:52:51;;;;;;;;;;;;;;;15.56;43.44;94681.34;5113377;28;1208;-50
2022/04/05 11:58:02;;;;;;;;;;;;;;;15.67;41.13;94669.97;5113718;28;1960;-50
2022/04/05 12:00:29;;;;;;;;;;;;;;;15.88;41.72;94665.47;5112825;28;940;-50
2022/04/05 12:03:05;;;;;;;;;;;;;;;15.97;41.15;94664.22;5113599;28;977;-49
2022/04/05 12:05:44;;;;;;;;;;;;;;;16.07;42.00;94661.97;5113761;28;1059;-50
2022/04/05 12:08:14;;;;;;;;;;;;;;;16.17;42.13;94666.94;5113332;28;1122;-50
2022/04/05 12:10:41;;;;;;;;;;;;;;;15.99;40.50;94660.31;5113470;28;1035;-50
2022/04/05 12:13:07;;;;;;;;;;;;;;;15.69;40.89;94661.66;5111802;28;1110;-50
2022/04/05 12:15:34;;;;;;;;;;;;;;;15.64;41.15;94654.22;5113519;28;1952;-50
2022/04/05 12:18:20;;;;;;;;;;;;;;;15.64;41.14;94653.38;5115470;28;1926;-50
2022/04/05 12:21:03;;;;;;;;;;;;;;;15.78;42.73;94657.78;5117557;28;1867;-50
2022/04/05 12:23:29;;;;;;;;;;;;;;;16.03;41.17;94636.47;5117414;28;987;-50
2022/04/05 12:26:05;;;;;;;;;;;;;;;16.15;40.42;94642.88;5117366;28;1036;-50
2022/04/05 12:28:32;;;;;;;;;;;;;;;16.18;41.38;94637.06;5117633;28;977;-50
2022/04/05 12:31:07;;;;;;;;;;;;;;;16.22;40.30;94633.94;5117493;28;1055;-50
2022/04/05 12:33:34;;;;;;;;;;;;;;;16.09;40.01;94629.41;5117603;28;953;-50
2022/04/05 12:36:00;;;;;;;;;;;;;;;15.94;40.34;94621.53;5117176;28;2004;-50
2022/04/05 12:38:26;;;;;;;;;;;;;;;15.74;40.88;94622.31;5117096;28;1824;-50
2022/04/05 12:40:53;;;;;;;;;;;;;;;15.81;40.99;94619.66;5117472;28;1043;-50
2022/04/05 12:43:22;;;;;;;;;;;;;;;16.00;41.23;94621.50;5117087;28;1063;-50
2022/04/05 12:45:48;;;;;;;;;;;;;;;15.83;39.67;94614.88;5116906;28;1107;-50
2022/04/05 12:48:19;;;;;;;;;;;;;;;15.96;40.89;94617.56;5117221;28;991;-50
2022/04/05 12:50:46;;;;;;;;;;;;;;;15.84;39.59;94615.69;5117199;28;1185;-50
2022/04/05 12:53:22;;;;;;;;;;;;;;;15.91;40.26;94608.44;5116838;28;1060;-50
2022/04/05 12:56:16;;;;;;;;;;;;;;;16.13;40.57;94603.69;5117111;28;1909;-50
2022/04/05 12:58:48;;;;;;;;;;;;;;;16.07;39.85;94605.34;5114749;28;1440;-50
2022/04/05 13:01:23;;;;;;;;;;;;;;;16.07;39.55;94594.56;5116982;28;944;-50
2022/04/05 13:03:55;;;;;;;;;;;;;;;16.24;40.62;94596.81;5115451;28;965;-50
2022/04/05 13:06:25;;;;;;;;;;;;;;;16.48;39.05;94598.84;5116754;28;1892;-50
2022/04/05 13:09:02;;;;;;;;;;;;;;;16.46;39.71;94600.91;5116646;28;960;-50
2022/04/05 13:11:30;;;;;;;;;;;;;;;16.06;38.85;94600.16;5116967;28;1034;-49